AAL2183 KCLT-KIND
Flight info
| Callsign | AAL2183 |
|---|---|
| Flight time | 1h 13m |
| Altitude | 32000 |
| Route | JOJJO5 CUBIM DCT HAGAL GIIBS4 |
| Aircraft | B38M/M-VGDW/C |
Departure
| Time | 2026-05-07 13:50 |
|---|---|
| Airport | Charlotte Douglas International Airport (KCLT) |
Arrival
| Time | 2026-05-07 15:03 |
|---|---|
| Airport | Indianapolis International Airport (KIND) |
| Time | Latitude | Longitude | Altitude | Speed | Heading |
|---|---|---|---|---|---|
| 2026-05-07 13:30 | 35.21875 | -80.94467 | 735 ft | 0 kts | 286° |
| 2026-05-07 13:38 | 35.21875 | -80.94466 | 744 ft | 2 kts | 286° |
| 2026-05-07 13:38 | 35.21870 | -80.94445 | 735 ft | 3 kts | 284° |
| 2026-05-07 13:39 | 35.21869 | -80.94422 | 735 ft | 3 kts | 254° |
| 2026-05-07 13:39 | 35.21878 | -80.94402 | 733 ft | 3 kts | 224° |
| 2026-05-07 13:39 | 35.21893 | -80.94390 | 733 ft | 3 kts | 194° |
| 2026-05-07 13:39 | 35.21907 | -80.94388 | 734 ft | 0 kts | 169° |
| 2026-05-07 13:43 | 35.21905 | -80.94387 | 734 ft | 1 kts | 169° |
| 2026-05-07 13:43 | 35.21886 | -80.94383 | 733 ft | 5 kts | 169° |
| 2026-05-07 13:43 | 35.21839 | -80.94372 | 735 ft | 9 kts | 169° |
| 2026-05-07 13:44 | 35.21767 | -80.94377 | 735 ft | 12 kts | 180° |
| 2026-05-07 13:44 | 35.21680 | -80.94378 | 735 ft | 14 kts | 199° |
| 2026-05-07 13:44 | 35.21632 | -80.94480 | 735 ft | 15 kts | 260° |
| 2026-05-07 13:44 | 35.21622 | -80.94618 | 735 ft | 17 kts | 266° |
| 2026-05-07 13:45 | 35.21616 | -80.94762 | 734 ft | 18 kts | 266° |
| 2026-05-07 13:45 | 35.21605 | -80.94919 | 735 ft | 18 kts | 265° |
| 2026-05-07 13:45 | 35.21552 | -80.95017 | 736 ft | 15 kts | 173° |
| 2026-05-07 13:45 | 35.21445 | -80.95006 | 735 ft | 17 kts | 176° |
| 2026-05-07 13:46 | 35.21320 | -80.94996 | 735 ft | 19 kts | 176° |
| 2026-05-07 13:46 | 35.21180 | -80.94985 | 735 ft | 21 kts | 176° |
| 2026-05-07 13:46 | 35.21025 | -80.94971 | 732 ft | 23 kts | 175° |
| 2026-05-07 13:46 | 35.20849 | -80.94956 | 729 ft | 24 kts | 175° |
| 2026-05-07 13:47 | 35.20698 | -80.94943 | 735 ft | 21 kts | 176° |
| 2026-05-07 13:47 | 35.20560 | -80.94933 | 736 ft | 21 kts | 176° |
| 2026-05-07 13:47 | 35.20410 | -80.94923 | 736 ft | 22 kts | 175° |
| 2026-05-07 13:47 | 35.20254 | -80.94905 | 735 ft | 21 kts | 176° |
| 2026-05-07 13:48 | 35.20119 | -80.94894 | 735 ft | 16 kts | 176° |
| 2026-05-07 13:48 | 35.20019 | -80.94927 | 735 ft | 13 kts | 245° |
| 2026-05-07 13:48 | 35.20010 | -80.95029 | 737 ft | 12 kts | 265° |
| 2026-05-07 13:48 | 35.20037 | -80.95088 | 738 ft | 7 kts | 353° |
| 2026-05-07 13:49 | 35.20044 | -80.95088 | 738 ft | 0 kts | 357° |
| 2026-05-07 13:49 | 35.20052 | -80.95089 | 738 ft | 6 kts | 356° |
| 2026-05-07 13:49 | 35.20347 | -80.95113 | 739 ft | 84 kts | 355° |
| 2026-05-07 13:50 | 35.21175 | -80.95186 | 738 ft | 155 kts | 356° |
| 2026-05-07 13:50 | 35.22403 | -80.95274 | 1101 ft | 186 kts | 355° |
| 2026-05-07 13:50 | 35.23731 | -80.95510 | 1791 ft | 200 kts | 335° |
| 2026-05-07 13:50 | 35.24935 | -80.96381 | 2498 ft | 205 kts | 322° |
| 2026-05-07 13:51 | 35.26126 | -80.97391 | 3095 ft | 215 kts | 322° |
| 2026-05-07 13:51 | 35.27409 | -80.98484 | 3678 ft | 232 kts | 322° |
| 2026-05-07 13:51 | 35.28759 | -80.99637 | 4245 ft | 240 kts | 322° |
| 2026-05-07 13:51 | 35.30146 | -81.00838 | 4847 ft | 248 kts | 321° |
| 2026-05-07 13:52 | 35.31409 | -81.02296 | 5407 ft | 252 kts | 307° |
| 2026-05-07 13:52 | 35.32377 | -81.04091 | 6004 ft | 254 kts | 299° |
| 2026-05-07 13:52 | 35.33302 | -81.05948 | 6581 ft | 256 kts | 300° |
| 2026-05-07 13:52 | 35.34238 | -81.07807 | 7141 ft | 256 kts | 300° |
| 2026-05-07 13:53 | 35.35177 | -81.09656 | 7709 ft | 256 kts | 299° |
| 2026-05-07 13:53 | 35.36127 | -81.11521 | 7938 ft | 261 kts | 300° |
| 2026-05-07 13:53 | 35.37098 | -81.13423 | 7963 ft | 265 kts | 300° |
| 2026-05-07 13:53 | 35.37744 | -81.14688 | 8080 ft | 263 kts | 299° |
| 2026-05-07 13:54 | 35.38719 | -81.16597 | 8685 ft | 266 kts | 299° |
| 2026-05-07 13:54 | 35.39715 | -81.18545 | 9315 ft | 267 kts | 298° |
| 2026-05-07 13:54 | 35.40685 | -81.20444 | 9904 ft | 266 kts | 298° |
| 2026-05-07 13:54 | 35.41679 | -81.22392 | 10446 ft | 267 kts | 298° |
| 2026-05-07 13:55 | 35.42663 | -81.24325 | 11009 ft | 267 kts | 298° |
| 2026-05-07 13:55 | 35.43647 | -81.26255 | 11565 ft | 268 kts | 298° |
| 2026-05-07 13:55 | 35.44670 | -81.28175 | 12136 ft | 270 kts | 300° |
| 2026-05-07 13:55 | 35.45782 | -81.30102 | 12713 ft | 284 kts | 300° |
| 2026-05-07 13:56 | 35.46951 | -81.32129 | 13269 ft | 297 kts | 300° |
| 2026-05-07 13:56 | 35.48168 | -81.34241 | 13851 ft | 309 kts | 300° |
| 2026-05-07 13:56 | 35.49431 | -81.36434 | 14366 ft | 319 kts | 300° |
| 2026-05-07 13:56 | 35.50728 | -81.38685 | 14903 ft | 327 kts | 299° |
| 2026-05-07 13:57 | 35.52049 | -81.40988 | 15461 ft | 331 kts | 299° |
| 2026-05-07 13:57 | 35.53382 | -81.43319 | 16026 ft | 335 kts | 299° |
| 2026-05-07 13:57 | 35.54728 | -81.45674 | 16608 ft | 339 kts | 298° |
| 2026-05-07 13:57 | 35.55972 | -81.48124 | 17209 ft | 337 kts | 291° |
| 2026-05-07 13:58 | 35.57057 | -81.50698 | 17802 ft | 342 kts | 291° |
| 2026-05-07 13:58 | 35.58165 | -81.53305 | 18354 ft | 346 kts | 291° |
| 2026-05-07 13:58 | 35.59282 | -81.55930 | 18972 ft | 346 kts | 291° |
| 2026-05-07 13:58 | 35.60396 | -81.58548 | 19651 ft | 345 kts | 290° |
| 2026-05-07 13:59 | 35.61511 | -81.61152 | 20359 ft | 345 kts | 290° |
| 2026-05-07 13:59 | 35.62636 | -81.63757 | 21012 ft | 344 kts | 290° |
| 2026-05-07 13:59 | 35.63758 | -81.66354 | 21660 ft | 344 kts | 290° |
| 2026-05-07 13:59 | 35.64885 | -81.68963 | 22238 ft | 346 kts | 290° |
| 2026-05-07 14:00 | 35.66011 | -81.71570 | 22839 ft | 346 kts | 290° |
| 2026-05-07 14:00 | 35.67153 | -81.74220 | 23464 ft | 346 kts | 289° |
| 2026-05-07 14:00 | 35.68284 | -81.76846 | 23950 ft | 348 kts | 289° |
| 2026-05-07 14:00 | 35.69416 | -81.79474 | 24427 ft | 348 kts | 289° |
| 2026-05-07 14:01 | 35.70551 | -81.82114 | 24890 ft | 350 kts | 289° |
| 2026-05-07 14:01 | 35.71692 | -81.84769 | 25323 ft | 352 kts | 289° |
| 2026-05-07 14:01 | 35.72838 | -81.87437 | 25792 ft | 353 kts | 289° |
| 2026-05-07 14:01 | 35.73988 | -81.90116 | 26216 ft | 355 kts | 289° |
| 2026-05-07 14:02 | 35.75428 | -81.92646 | 26688 ft | 373 kts | 304° |
| 2026-05-07 14:02 | 35.77511 | -81.94659 | 27299 ft | 383 kts | 310° |
| 2026-05-07 14:02 | 35.79619 | -81.96636 | 27815 ft | 380 kts | 309° |
| 2026-05-07 14:02 | 35.81717 | -81.98629 | 28275 ft | 380 kts | 309° |
| 2026-05-07 14:03 | 35.83808 | -82.00612 | 28879 ft | 378 kts | 309° |
| 2026-05-07 14:03 | 35.85881 | -82.02578 | 29516 ft | 374 kts | 308° |
| 2026-05-07 14:03 | 35.87936 | -82.04529 | 30066 ft | 372 kts | 308° |
| 2026-05-07 14:03 | 35.89986 | -82.06479 | 30517 ft | 371 kts | 308° |
| 2026-05-07 14:04 | 35.92024 | -82.08414 | 30969 ft | 368 kts | 308° |
| 2026-05-07 14:04 | 35.94046 | -82.10339 | 31424 ft | 366 kts | 307° |
| 2026-05-07 14:04 | 35.96060 | -82.12258 | 31790 ft | 367 kts | 307° |
| 2026-05-07 14:04 | 35.98095 | -82.14197 | 31911 ft | 373 kts | 307° |
| 2026-05-07 14:05 | 36.00176 | -82.16182 | 31877 ft | 382 kts | 308° |
| 2026-05-07 14:05 | 36.04455 | -82.20267 | 31882 ft | 395 kts | 308° |
| 2026-05-07 14:06 | 36.08846 | -82.24460 | 31887 ft | 400 kts | 308° |
| 2026-05-07 14:06 | 36.13249 | -82.28673 | 31905 ft | 401 kts | 308° |
| 2026-05-07 14:07 | 36.17653 | -82.32895 | 31935 ft | 401 kts | 308° |
| 2026-05-07 14:07 | 36.22055 | -82.37120 | 31953 ft | 400 kts | 308° |
| 2026-05-07 14:08 | 36.26454 | -82.41348 | 31958 ft | 400 kts | 307° |
| 2026-05-07 14:08 | 36.30844 | -82.45574 | 31976 ft | 400 kts | 307° |
| 2026-05-07 14:09 | 36.35234 | -82.49806 | 31988 ft | 400 kts | 307° |
| 2026-05-07 14:09 | 36.39623 | -82.54043 | 31983 ft | 400 kts | 307° |
| 2026-05-07 14:10 | 36.44013 | -82.58288 | 31995 ft | 400 kts | 307° |
| 2026-05-07 14:10 | 36.48425 | -82.62561 | 31983 ft | 400 kts | 307° |
| 2026-05-07 14:11 | 36.52786 | -82.66790 | 31972 ft | 400 kts | 307° |
| 2026-05-07 14:11 | 36.57164 | -82.71042 | 31973 ft | 399 kts | 307° |
| 2026-05-07 14:12 | 36.61567 | -82.75325 | 31964 ft | 399 kts | 306° |
| 2026-05-07 14:12 | 36.65935 | -82.79579 | 31970 ft | 398 kts | 306° |
| 2026-05-07 14:13 | 36.70297 | -82.83833 | 31969 ft | 398 kts | 306° |
| 2026-05-07 14:13 | 36.74661 | -82.88084 | 31975 ft | 399 kts | 307° |
| 2026-05-07 14:14 | 36.79061 | -82.92299 | 31983 ft | 399 kts | 307° |
| 2026-05-07 14:14 | 36.83458 | -82.96510 | 31988 ft | 398 kts | 306° |
| 2026-05-07 14:15 | 36.87718 | -83.00820 | 31990 ft | 378 kts | 296° |
| 2026-05-07 14:15 | 36.89149 | -83.03434 | 32000 ft | 360 kts | 289° |
| 2026-05-07 14:15 | 36.90551 | -83.06066 | 31982 ft | 365 kts | 291° |
| 2026-05-07 14:16 | 36.93359 | -83.11346 | 31994 ft | 363 kts | 290° |
| 2026-05-07 14:16 | 36.96131 | -83.16621 | 32007 ft | 363 kts | 290° |
| 2026-05-07 14:17 | 36.98892 | -83.21890 | 32005 ft | 361 kts | 290° |
| 2026-05-07 14:17 | 37.01643 | -83.27151 | 32010 ft | 361 kts | 290° |
| 2026-05-07 14:18 | 37.04407 | -83.32443 | 32010 ft | 360 kts | 290° |
| 2026-05-07 14:18 | 37.07145 | -83.37696 | 32017 ft | 360 kts | 290° |
| 2026-05-07 14:19 | 37.09878 | -83.42946 | 32017 ft | 359 kts | 290° |
| 2026-05-07 14:19 | 37.12603 | -83.48189 | 32031 ft | 358 kts | 290° |
| 2026-05-07 14:20 | 37.15317 | -83.53420 | 32032 ft | 358 kts | 290° |
| 2026-05-07 14:20 | 37.18028 | -83.58652 | 32032 ft | 357 kts | 290° |
| 2026-05-07 14:21 | 37.20729 | -83.63874 | 32032 ft | 357 kts | 290° |
| 2026-05-07 14:21 | 37.23426 | -83.69095 | 32027 ft | 356 kts | 290° |
| 2026-05-07 14:22 | 37.26117 | -83.74316 | 32027 ft | 356 kts | 289° |
| 2026-05-07 14:22 | 37.28808 | -83.79542 | 32035 ft | 356 kts | 289° |
| 2026-05-07 14:23 | 37.31485 | -83.84751 | 32037 ft | 355 kts | 289° |
| 2026-05-07 14:23 | 37.34161 | -83.89965 | 32038 ft | 355 kts | 289° |
| 2026-05-07 14:24 | 37.36833 | -83.95177 | 32033 ft | 354 kts | 289° |
| 2026-05-07 14:24 | 37.39501 | -84.00392 | 32027 ft | 354 kts | 289° |
| 2026-05-07 14:25 | 37.41710 | -84.04716 | 32041 ft | 354 kts | 289° |
| 2026-05-07 14:25 | 37.44384 | -84.09958 | 32061 ft | 353 kts | 289° |
| 2026-05-07 14:26 | 37.47018 | -84.15128 | 32069 ft | 353 kts | 289° |
| 2026-05-07 14:26 | 37.49664 | -84.20331 | 32063 ft | 352 kts | 289° |
| 2026-05-07 14:27 | 37.52320 | -84.25563 | 32072 ft | 352 kts | 289° |
| 2026-05-07 14:27 | 37.54936 | -84.30722 | 32081 ft | 351 kts | 289° |
| 2026-05-07 14:28 | 37.57580 | -84.35945 | 32083 ft | 351 kts | 289° |
| 2026-05-07 14:28 | 37.60185 | -84.41101 | 32080 ft | 351 kts | 289° |
| 2026-05-07 14:29 | 37.62822 | -84.46326 | 32073 ft | 350 kts | 289° |
| 2026-05-07 14:29 | 37.65435 | -84.51513 | 32075 ft | 350 kts | 289° |
| 2026-05-07 14:30 | 37.68042 | -84.56697 | 32077 ft | 350 kts | 289° |
| 2026-05-07 14:30 | 37.70645 | -84.61879 | 32084 ft | 349 kts | 289° |
| 2026-05-07 14:31 | 37.73250 | -84.67074 | 32083 ft | 349 kts | 289° |
| 2026-05-07 14:31 | 37.75846 | -84.72260 | 32085 ft | 349 kts | 288° |
| 2026-05-07 14:32 | 37.78435 | -84.77439 | 32081 ft | 349 kts | 288° |
| 2026-05-07 14:32 | 37.81021 | -84.82622 | 32081 ft | 348 kts | 288° |
| 2026-05-07 14:33 | 37.83601 | -84.87799 | 32080 ft | 348 kts | 288° |
| 2026-05-07 14:33 | 37.86177 | -84.92978 | 32070 ft | 347 kts | 288° |
| 2026-05-07 14:34 | 37.88747 | -84.98152 | 32073 ft | 347 kts | 288° |
| 2026-05-07 14:34 | 37.91315 | -85.03331 | 32079 ft | 347 kts | 288° |
| 2026-05-07 14:35 | 37.93879 | -85.08509 | 32078 ft | 347 kts | 288° |
| 2026-05-07 14:35 | 37.96441 | -85.13694 | 31957 ft | 351 kts | 288° |
| 2026-05-07 14:35 | 37.97742 | -85.16326 | 31722 ft | 353 kts | 288° |
| 2026-05-07 14:36 | 37.99043 | -85.18964 | 31490 ft | 354 kts | 288° |
| 2026-05-07 14:36 | 38.00353 | -85.21621 | 31269 ft | 356 kts | 288° |
| 2026-05-07 14:36 | 38.01666 | -85.24286 | 31037 ft | 357 kts | 288° |
| 2026-05-07 14:36 | 38.02985 | -85.26966 | 30825 ft | 359 kts | 288° |
| 2026-05-07 14:37 | 38.04307 | -85.29656 | 30594 ft | 361 kts | 289° |
| 2026-05-07 14:37 | 38.06974 | -85.35086 | 30166 ft | 364 kts | 289° |
| 2026-05-07 14:37 | 38.08320 | -85.37826 | 29899 ft | 366 kts | 289° |
| 2026-05-07 14:38 | 38.09671 | -85.40582 | 29638 ft | 368 kts | 289° |
| 2026-05-07 14:38 | 38.11028 | -85.43349 | 29367 ft | 371 kts | 289° |
| 2026-05-07 14:38 | 38.12394 | -85.46140 | 29089 ft | 373 kts | 290° |
| 2026-05-07 14:38 | 38.13765 | -85.48943 | 28823 ft | 375 kts | 290° |
| 2026-05-07 14:39 | 38.15145 | -85.51766 | 28562 ft | 377 kts | 290° |
| 2026-05-07 14:39 | 38.16530 | -85.54603 | 28298 ft | 379 kts | 290° |
| 2026-05-07 14:39 | 38.18170 | -85.57318 | 28100 ft | 402 kts | 304° |
| 2026-05-07 14:39 | 38.20552 | -85.59423 | 28080 ft | 435 kts | 320° |
| 2026-05-07 14:40 | 38.23508 | -85.60709 | 27813 ft | 466 kts | 335° |
| 2026-05-07 14:40 | 38.26837 | -85.61014 | 27339 ft | 492 kts | 348° |
| 2026-05-07 14:40 | 38.30231 | -85.61042 | 26860 ft | 484 kts | 344° |
| 2026-05-07 14:40 | 38.33575 | -85.61335 | 26380 ft | 480 kts | 342° |
| 2026-05-07 14:41 | 38.36894 | -85.61732 | 25926 ft | 478 kts | 342° |
| 2026-05-07 14:41 | 38.40196 | -85.62185 | 25488 ft | 476 kts | 342° |
| 2026-05-07 14:41 | 38.43477 | -85.62662 | 25050 ft | 472 kts | 342° |
| 2026-05-07 14:41 | 38.46725 | -85.63149 | 24629 ft | 468 kts | 342° |
| 2026-05-07 14:42 | 38.49948 | -85.63638 | 24212 ft | 464 kts | 342° |
| 2026-05-07 14:42 | 38.53138 | -85.64124 | 23801 ft | 460 kts | 343° |
| 2026-05-07 14:42 | 38.56341 | -85.64614 | 23333 ft | 456 kts | 343° |
| 2026-05-07 14:42 | 38.59452 | -85.65075 | 22865 ft | 453 kts | 343° |
| 2026-05-07 14:43 | 38.62567 | -85.65533 | 22377 ft | 447 kts | 343° |
| 2026-05-07 14:43 | 38.65617 | -85.65980 | 21920 ft | 437 kts | 343° |
| 2026-05-07 14:43 | 38.68621 | -85.66423 | 21450 ft | 432 kts | 343° |
| 2026-05-07 14:43 | 38.71588 | -85.66860 | 20996 ft | 428 kts | 343° |
| 2026-05-07 14:44 | 38.74538 | -85.67294 | 20548 ft | 424 kts | 343° |
| 2026-05-07 14:44 | 38.77461 | -85.67725 | 20103 ft | 421 kts | 343° |
| 2026-05-07 14:44 | 38.80374 | -85.68154 | 19671 ft | 418 kts | 343° |
| 2026-05-07 14:44 | 38.83243 | -85.68578 | 19234 ft | 415 kts | 343° |
| 2026-05-07 14:45 | 38.86104 | -85.69000 | 18811 ft | 412 kts | 343° |
| 2026-05-07 14:45 | 38.88942 | -85.69420 | 18385 ft | 409 kts | 343° |
| 2026-05-07 14:45 | 38.91756 | -85.69836 | 18116 ft | 407 kts | 343° |
| 2026-05-07 14:45 | 38.94565 | -85.70252 | 18090 ft | 406 kts | 344° |
| 2026-05-07 14:46 | 38.97372 | -85.70668 | 18086 ft | 406 kts | 344° |
| 2026-05-07 14:46 | 39.00181 | -85.71085 | 18095 ft | 406 kts | 344° |
| 2026-05-07 14:46 | 39.02984 | -85.71504 | 18093 ft | 405 kts | 343° |
| 2026-05-07 14:46 | 39.05771 | -85.71988 | 17844 ft | 402 kts | 343° |
| 2026-05-07 14:47 | 39.08514 | -85.72476 | 17419 ft | 394 kts | 343° |
| 2026-05-07 14:47 | 39.11208 | -85.72958 | 16993 ft | 388 kts | 344° |
| 2026-05-07 14:47 | 39.13854 | -85.73432 | 16571 ft | 381 kts | 344° |
| 2026-05-07 14:47 | 39.16364 | -85.74240 | 16140 ft | 363 kts | 329° |
| 2026-05-07 14:48 | 39.18635 | -85.75582 | 15745 ft | 357 kts | 329° |
| 2026-05-07 14:48 | 39.20888 | -85.76879 | 15351 ft | 352 kts | 330° |
| 2026-05-07 14:48 | 39.23109 | -85.78157 | 14963 ft | 348 kts | 330° |
| 2026-05-07 14:48 | 39.25312 | -85.79425 | 14561 ft | 344 kts | 330° |
| 2026-05-07 14:49 | 39.27487 | -85.80678 | 14182 ft | 341 kts | 330° |
| 2026-05-07 14:49 | 39.29647 | -85.81921 | 13782 ft | 338 kts | 331° |
| 2026-05-07 14:49 | 39.31782 | -85.83152 | 13362 ft | 335 kts | 331° |
| 2026-05-07 14:49 | 39.33799 | -85.84579 | 12909 ft | 326 kts | 317° |
| 2026-05-07 14:50 | 39.35558 | -85.86458 | 12497 ft | 322 kts | 317° |
| 2026-05-07 14:50 | 39.37266 | -85.88256 | 12095 ft | 320 kts | 317° |
| 2026-05-07 14:50 | 39.38986 | -85.90059 | 11693 ft | 318 kts | 317° |
| 2026-05-07 14:50 | 39.40725 | -85.91877 | 11274 ft | 316 kts | 317° |
| 2026-05-07 14:51 | 39.42418 | -85.93646 | 11049 ft | 308 kts | 317° |
| 2026-05-07 14:51 | 39.42954 | -85.94207 | 11048 ft | 304 kts | 317° |
| 2026-05-07 14:51 | 39.43556 | -85.94836 | 11044 ft | 299 kts | 317° |
| 2026-05-07 14:51 | 39.45156 | -85.96510 | 11020 ft | 292 kts | 317° |
| 2026-05-07 14:52 | 39.46714 | -85.98091 | 10994 ft | 280 kts | 319° |
| 2026-05-07 14:52 | 39.48261 | -85.99610 | 10683 ft | 278 kts | 319° |
| 2026-05-07 14:52 | 39.49799 | -86.01121 | 10353 ft | 278 kts | 319° |
| 2026-05-07 14:52 | 39.51338 | -86.02632 | 10001 ft | 277 kts | 319° |
| 2026-05-07 14:53 | 39.52871 | -86.04138 | 9627 ft | 277 kts | 319° |
| 2026-05-07 14:53 | 39.54406 | -86.05648 | 9250 ft | 277 kts | 319° |
| 2026-05-07 14:53 | 39.55940 | -86.07157 | 8882 ft | 276 kts | 320° |
| 2026-05-07 14:53 | 39.57471 | -86.08663 | 8513 ft | 277 kts | 320° |
| 2026-05-07 14:54 | 39.59008 | -86.10177 | 8150 ft | 277 kts | 320° |
| 2026-05-07 14:54 | 39.60417 | -86.11832 | 7785 ft | 269 kts | 313° |
| 2026-05-07 14:54 | 39.61702 | -86.13529 | 7429 ft | 259 kts | 314° |
| 2026-05-07 14:54 | 39.62957 | -86.15164 | 7079 ft | 252 kts | 314° |
| 2026-05-07 14:55 | 39.64147 | -86.16705 | 6748 ft | 245 kts | 315° |
| 2026-05-07 14:55 | 39.65487 | -86.18142 | 6367 ft | 246 kts | 333° |
| 2026-05-07 14:55 | 39.67157 | -86.18522 | 6173 ft | 247 kts | 4° |
| 2026-05-07 14:55 | 39.68750 | -86.17738 | 6037 ft | 249 kts | 32° |
| 2026-05-07 14:56 | 39.70023 | -86.16207 | 5973 ft | 252 kts | 40° |
| 2026-05-07 14:56 | 39.71281 | -86.14603 | 5681 ft | 255 kts | 40° |
| 2026-05-07 14:56 | 39.72552 | -86.12978 | 5370 ft | 257 kts | 40° |
| 2026-05-07 14:56 | 39.73834 | -86.11339 | 5063 ft | 259 kts | 40° |
| 2026-05-07 14:57 | 39.75107 | -86.09697 | 4769 ft | 257 kts | 41° |
| 2026-05-07 14:57 | 39.76368 | -86.08056 | 4486 ft | 256 kts | 41° |
| 2026-05-07 14:57 | 39.77215 | -86.06959 | 4288 ft | 253 kts | 40° |
| 2026-05-07 14:57 | 39.79133 | -86.05492 | 4027 ft | 232 kts | 9° |
| 2026-05-07 14:58 | 39.80664 | -86.05442 | 4043 ft | 212 kts | 343° |
| 2026-05-07 14:58 | 39.81567 | -86.05898 | 4083 ft | 203 kts | 327° |
| 2026-05-07 14:58 | 39.82637 | -86.07027 | 4036 ft | 194 kts | 316° |
| 2026-05-07 14:58 | 39.83590 | -86.08238 | 4040 ft | 191 kts | 315° |
| 2026-05-07 14:59 | 39.84435 | -86.09562 | 3867 ft | 192 kts | 294° |
| 2026-05-07 14:59 | 39.84435 | -86.11256 | 3614 ft | 191 kts | 253° |
| 2026-05-07 14:59 | 39.83840 | -86.12802 | 3612 ft | 192 kts | 246° |
| 2026-05-07 14:59 | 39.83231 | -86.14348 | 3392 ft | 191 kts | 248° |
| 2026-05-07 15:00 | 39.82642 | -86.15898 | 3314 ft | 192 kts | 247° |
| 2026-05-07 15:00 | 39.82005 | -86.17430 | 3092 ft | 195 kts | 237° |
| 2026-05-07 15:00 | 39.81095 | -86.18706 | 3026 ft | 193 kts | 227° |
| 2026-05-07 15:00 | 39.80109 | -86.19939 | 2748 ft | 199 kts | 227° |
| 2026-05-07 15:01 | 39.79143 | -86.21182 | 2568 ft | 193 kts | 227° |
| 2026-05-07 15:01 | 39.78210 | -86.22375 | 2337 ft | 180 kts | 227° |
| 2026-05-07 15:01 | 39.77353 | -86.23450 | 2164 ft | 166 kts | 228° |
| 2026-05-07 15:01 | 39.76573 | -86.24475 | 1925 ft | 155 kts | 229° |
| 2026-05-07 15:02 | 39.75816 | -86.25449 | 1662 ft | 152 kts | 227° |
| 2026-05-07 15:02 | 39.75063 | -86.26411 | 1480 ft | 152 kts | 227° |
| 2026-05-07 15:02 | 39.74316 | -86.27374 | 1232 ft | 151 kts | 227° |
| 2026-05-07 15:02 | 39.73569 | -86.28330 | 1035 ft | 150 kts | 227° |
| 2026-05-07 15:03 | 39.72825 | -86.29287 | 822 ft | 150 kts | 227° |
| 2026-05-07 15:03 | 39.72132 | -86.30182 | 783 ft | 123 kts | 225° |
| 2026-05-07 15:03 | 39.71686 | -86.30745 | 781 ft | 57 kts | 225° |
| 2026-05-07 15:03 | 39.71491 | -86.30981 | 784 ft | 30 kts | 207° |
| 2026-05-07 15:04 | 39.71330 | -86.30994 | 782 ft | 14 kts | 155° |
| 2026-05-07 15:04 | 39.71340 | -86.30888 | 782 ft | 15 kts | 45° |
| 2026-05-07 15:04 | 39.71413 | -86.30794 | 784 ft | 15 kts | 45° |
| 2026-05-07 15:04 | 39.71498 | -86.30685 | 782 ft | 19 kts | 44° |
| 2026-05-07 15:05 | 39.71599 | -86.30560 | 781 ft | 21 kts | 44° |
| 2026-05-07 15:05 | 39.71700 | -86.30432 | 778 ft | 22 kts | 44° |
| 2026-05-07 15:05 | 39.71796 | -86.30310 | 780 ft | 18 kts | 45° |
| 2026-05-07 15:05 | 39.71876 | -86.30205 | 780 ft | 14 kts | 54° |
| 2026-05-07 15:06 | 39.71856 | -86.30099 | 781 ft | 14 kts | 139° |
| 2026-05-07 15:06 | 39.71796 | -86.30011 | 784 ft | 12 kts | 105° |
| 2026-05-07 15:06 | 39.71834 | -86.29927 | 786 ft | 11 kts | 38° |
| 2026-05-07 15:06 | 39.71898 | -86.29859 | 787 ft | 13 kts | 40° |
| 2026-05-07 15:07 | 39.71975 | -86.29777 | 787 ft | 16 kts | 39° |
| 2026-05-07 15:07 | 39.72013 | -86.29669 | 788 ft | 14 kts | 119° |
| 2026-05-07 15:07 | 39.71950 | -86.29566 | 789 ft | 15 kts | 129° |
| 2026-05-07 15:07 | 39.71878 | -86.29457 | 789 ft | 16 kts | 140° |
| 2026-05-07 15:08 | 39.71789 | -86.29488 | 789 ft | 14 kts | 219° |
| 2026-05-07 15:08 | 39.71718 | -86.29569 | 789 ft | 11 kts | 224° |
| 2026-05-07 15:08 | 39.71662 | -86.29640 | 789 ft | 12 kts | 224° |
| 2026-05-07 15:08 | 39.71641 | -86.29702 | 789 ft | 5 kts | 305° |
| 2026-05-07 15:09 | 39.71659 | -86.29732 | 789 ft | 2 kts | 309° |
| 2026-05-07 15:09 | 39.71662 | -86.29738 | 789 ft | 0 kts | 309° |